sensor_id;sensor_type;location;lat;lon;timestamp;P1;durP1;ratioP1;P2;durP2;ratioP2
47519;SDS011;33252;48.122;11.538;2022-07-05T00:00:47;2.25;;;1.02;;
47519;SDS011;33252;48.122;11.538;2022-07-05T00:03:13;3.20;;;1.23;;
47519;SDS011;33252;48.122;11.538;2022-07-05T00:05:39;2.63;;;0.88;;
47519;SDS011;33252;48.122;11.538;2022-07-05T00:08:05;2.33;;;1.05;;
47519;SDS011;33252;48.122;11.538;2022-07-05T00:10:32;1.48;;;1.05;;
47519;SDS011;33252;48.122;11.538;2022-07-05T00:13:01;4.15;;;1.05;;
47519;SDS011;33252;48.122;11.538;2022-07-05T00:15:28;2.85;;;0.95;;
47519;SDS011;33252;48.122;11.538;2022-07-05T00:17:53;1.42;;;0.82;;
47519;SDS011;33252;48.122;11.538;2022-07-05T00:20:19;2.60;;;1.17;;
47519;SDS011;33252;48.122;11.538;2022-07-05T00:22:45;2.30;;;0.95;;
47519;SDS011;33252;48.122;11.538;2022-07-05T00:25:10;3.50;;;1.30;;
47519;SDS011;33252;48.122;11.538;2022-07-05T00:27:36;1.65;;;1.13;;
47519;SDS011;33252;48.122;11.538;2022-07-05T00:30:03;1.40;;;0.88;;
47519;SDS011;33252;48.122;11.538;2022-07-05T00:32:29;2.72;;;1.42;;
47519;SDS011;33252;48.122;11.538;2022-07-05T00:34:55;3.05;;;1.25;;
47519;SDS011;33252;48.122;11.538;2022-07-05T00:37:21;3.78;;;1.50;;
47519;SDS011;33252;48.122;11.538;2022-07-05T00:39:46;3.30;;;2.30;;
47519;SDS011;33252;48.122;11.538;2022-07-05T00:42:12;1.73;;;1.30;;
47519;SDS011;33252;48.122;11.538;2022-07-05T00:44:38;2.60;;;1.30;;
47519;SDS011;33252;48.122;11.538;2022-07-05T00:47:06;3.80;;;1.55;;
47519;SDS011;33252;48.122;11.538;2022-07-05T00:49:34;4.65;;;2.08;;
47519;SDS011;33252;48.122;11.538;2022-07-05T00:52:01;5.97;;;2.30;;
47519;SDS011;33252;48.122;11.538;2022-07-05T00:54:28;6.60;;;2.28;;
47519;SDS011;33252;48.122;11.538;2022-07-05T00:56:56;3.00;;;1.60;;
47519;SDS011;33252;48.122;11.538;2022-07-05T00:59:22;1.35;;;1.13;;
47519;SDS011;33252;48.122;11.538;2022-07-05T01:01:48;1.45;;;1.25;;
47519;SDS011;33252;48.122;11.538;2022-07-05T01:04:14;4.13;;;1.33;;
47519;SDS011;33252;48.122;11.538;2022-07-05T01:06:40;2.22;;;1.67;;
47519;SDS011;33252;48.122;11.538;2022-07-05T01:09:12;2.15;;;1.30;;
47519;SDS011;33252;48.122;11.538;2022-07-05T01:11:40;2.08;;;1.73;;
47519;SDS011;33252;48.122;11.538;2022-07-05T01:14:18;3.13;;;1.95;;
47519;SDS011;33252;48.122;11.538;2022-07-05T01:16:46;3.28;;;2.10;;
47519;SDS011;33252;48.122;11.538;2022-07-05T01:19:12;2.00;;;1.80;;
47519;SDS011;33252;48.122;11.538;2022-07-05T01:21:39;3.63;;;1.95;;
47519;SDS011;33252;48.122;11.538;2022-07-05T01:24:07;6.07;;;2.10;;
47519;SDS011;33252;48.122;11.538;2022-07-05T01:26:34;5.80;;;1.90;;
47519;SDS011;33252;48.122;11.538;2022-07-05T01:29:00;2.33;;;2.13;;
47519;SDS011;33252;48.122;11.538;2022-07-05T01:31:26;4.45;;;1.27;;
47519;SDS011;33252;48.122;11.538;2022-07-05T01:33:52;5.90;;;2.05;;
47519;SDS011;33252;48.122;11.538;2022-07-05T01:36:18;2.00;;;1.80;;
47519;SDS011;33252;48.122;11.538;2022-07-05T01:38:44;3.20;;;2.17;;
47519;SDS011;33252;48.122;11.538;2022-07-05T01:41:10;4.05;;;2.53;;
47519;SDS011;33252;48.122;11.538;2022-07-05T01:43:36;4.70;;;2.90;;
47519;SDS011;33252;48.122;11.538;2022-07-05T01:46:03;2.70;;;2.50;;
47519;SDS011;33252;48.122;11.538;2022-07-05T01:48:32;3.63;;;2.28;;
47519;SDS011;33252;48.122;11.538;2022-07-05T01:51:01;3.75;;;2.38;;
47519;SDS011;33252;48.122;11.538;2022-07-05T01:53:30;3.70;;;2.42;;
47519;SDS011;33252;48.122;11.538;2022-07-05T01:55:58;3.88;;;2.13;;
47519;SDS011;33252;48.122;11.538;2022-07-05T01:58:24;3.97;;;2.60;;
47519;SDS011;33252;48.122;11.538;2022-07-05T02:00:52;9.05;;;2.65;;
47519;SDS011;33252;48.122;11.538;2022-07-05T02:03:18;5.85;;;2.90;;
47519;SDS011;33252;48.122;11.538;2022-07-05T02:05:45;3.65;;;2.40;;
47519;SDS011;33252;48.122;11.538;2022-07-05T02:08:12;2.80;;;2.55;;
47519;SDS011;33252;48.122;11.538;2022-07-05T02:10:39;3.10;;;2.60;;
47519;SDS011;33252;48.122;11.538;2022-07-05T02:13:06;3.00;;;2.67;;
47519;SDS011;33252;48.122;11.538;2022-07-05T02:15:33;3.47;;;2.83;;
47519;SDS011;33252;48.122;11.538;2022-07-05T02:18:00;3.78;;;2.90;;
47519;SDS011;33252;48.122;11.538;2022-07-05T02:20:27;3.40;;;3.10;;
47519;SDS011;33252;48.122;11.538;2022-07-05T02:22:53;3.35;;;2.65;;
47519;SDS011;33252;48.122;11.538;2022-07-05T02:25:19;2.95;;;2.33;;
47519;SDS011;33252;48.122;11.538;2022-07-05T02:27:45;3.65;;;2.70;;
47519;SDS011;33252;48.122;11.538;2022-07-05T02:30:12;3.03;;;2.80;;
47519;SDS011;33252;48.122;11.538;2022-07-05T02:32:38;3.50;;;2.35;;
47519;SDS011;33252;48.122;11.538;2022-07-05T02:35:03;3.78;;;2.65;;
47519;SDS011;33252;48.122;11.538;2022-07-05T02:37:30;3.92;;;2.60;;
47519;SDS011;33252;48.122;11.538;2022-07-05T02:39:55;2.42;;;2.22;;
47519;SDS011;33252;48.122;11.538;2022-07-05T02:42:21;3.60;;;3.05;;
47519;SDS011;33252;48.122;11.538;2022-07-05T02:44:47;5.07;;;2.63;;
47519;SDS011;33252;48.122;11.538;2022-07-05T02:47:12;2.42;;;2.22;;
47519;SDS011;33252;48.122;11.538;2022-07-05T02:49:38;3.10;;;2.53;;
47519;SDS011;33252;48.122;11.538;2022-07-05T02:52:04;3.97;;;2.30;;
47519;SDS011;33252;48.122;11.538;2022-07-05T02:54:30;3.55;;;3.08;;
47519;SDS011;33252;48.122;11.538;2022-07-05T02:56:55;3.15;;;2.38;;
47519;SDS011;33252;48.122;11.538;2022-07-05T02:59:21;3.08;;;2.03;;
47519;SDS011;33252;48.122;11.538;2022-07-05T03:01:47;2.83;;;2.60;;
47519;SDS011;33252;48.122;11.538;2022-07-05T03:04:12;2.92;;;2.20;;
47519;SDS011;33252;48.122;11.538;2022-07-05T03:06:38;2.45;;;2.25;;
47519;SDS011;33252;48.122;11.538;2022-07-05T03:09:04;3.38;;;2.03;;
47519;SDS011;33252;48.122;11.538;2022-07-05T03:11:30;2.13;;;1.50;;
47519;SDS011;33252;48.122;11.538;2022-07-05T03:13:55;2.20;;;2.00;;
47519;SDS011;33252;48.122;11.538;2022-07-05T03:16:21;3.58;;;1.95;;
47519;SDS011;33252;48.122;11.538;2022-07-05T03:18:49;3.13;;;2.15;;
47519;SDS011;33252;48.122;11.538;2022-07-05T03:21:15;4.88;;;2.10;;
47519;SDS011;33252;48.122;11.538;2022-07-05T03:23:40;2.55;;;1.48;;
47519;SDS011;33252;48.122;11.538;2022-07-05T03:26:06;3.15;;;1.60;;
47519;SDS011;33252;48.122;11.538;2022-07-05T03:28:32;1.90;;;1.50;;
47519;SDS011;33252;48.122;11.538;2022-07-05T03:30:58;1.77;;;1.65;;
47519;SDS011;33252;48.122;11.538;2022-07-05T03:33:23;3.72;;;1.45;;
47519;SDS011;33252;48.122;11.538;2022-07-05T03:35:49;2.33;;;1.83;;
47519;SDS011;33252;48.122;11.538;2022-07-05T03:38:15;2.40;;;1.50;;
47519;SDS011;33252;48.122;11.538;2022-07-05T03:40:41;3.35;;;1.95;;
47519;SDS011;33252;48.122;11.538;2022-07-05T03:43:07;1.63;;;1.45;;
47519;SDS011;33252;48.122;11.538;2022-07-05T03:45:32;3.58;;;1.80;;
47519;SDS011;33252;48.122;11.538;2022-07-05T03:47:59;3.15;;;1.60;;
47519;SDS011;33252;48.122;11.538;2022-07-05T03:50:25;1.77;;;1.17;;
47519;SDS011;33252;48.122;11.538;2022-07-05T03:52:51;2.28;;;1.80;;
47519;SDS011;33252;48.122;11.538;2022-07-05T03:55:17;3.03;;;1.70;;
47519;SDS011;33252;48.122;11.538;2022-07-05T03:57:43;2.08;;;1.65;;
47519;SDS011;33252;48.122;11.538;2022-07-05T04:00:09;3.22;;;1.95;;
47519;SDS011;33252;48.122;11.538;2022-07-05T04:02:35;3.30;;;1.80;;
47519;SDS011;33252;48.122;11.538;2022-07-05T04:05:01;2.85;;;1.60;;
47519;SDS011;33252;48.122;11.538;2022-07-05T04:07:27;3.55;;;1.92;;
47519;SDS011;33252;48.122;11.538;2022-07-05T04:09:52;2.25;;;1.75;;
47519;SDS011;33252;48.122;11.538;2022-07-05T04:12:18;2.47;;;1.70;;
47519;SDS011;33252;48.122;11.538;2022-07-05T04:14:43;2.78;;;2.10;;
47519;SDS011;33252;48.122;11.538;2022-07-05T04:17:09;4.53;;;2.17;;
47519;SDS011;33252;48.122;11.538;2022-07-05T04:19:35;3.20;;;1.80;;
47519;SDS011;33252;48.122;11.538;2022-07-05T04:22:00;4.90;;;2.25;;
47519;SDS011;33252;48.122;11.538;2022-07-05T04:24:26;5.10;;;1.63;;
47519;SDS011;33252;48.122;11.538;2022-07-05T04:26:52;2.58;;;2.00;;
47519;SDS011;33252;48.122;11.538;2022-07-05T04:29:17;2.42;;;1.73;;
47519;SDS011;33252;48.122;11.538;2022-07-05T04:31:43;3.58;;;1.95;;
47519;SDS011;33252;48.122;11.538;2022-07-05T04:34:09;3.40;;;1.73;;
47519;SDS011;33252;48.122;11.538;2022-07-05T04:36:34;3.05;;;2.10;;
47519;SDS011;33252;48.122;11.538;2022-07-05T04:39:02;2.92;;;2.00;;
47519;SDS011;33252;48.122;11.538;2022-07-05T04:41:29;2.92;;;1.80;;
47519;SDS011;33252;48.122;11.538;2022-07-05T04:43:54;4.10;;;2.17;;
47519;SDS011;33252;48.122;11.538;2022-07-05T04:46:20;2.60;;;2.00;;
47519;SDS011;33252;48.122;11.538;2022-07-05T04:48:46;3.40;;;1.70;;
47519;SDS011;33252;48.122;11.538;2022-07-05T04:51:11;2.38;;;1.60;;
47519;SDS011;33252;48.122;11.538;2022-07-05T04:53:37;1.80;;;1.70;;
47519;SDS011;33252;48.122;11.538;2022-07-05T04:56:03;4.63;;;2.30;;
47519;SDS011;33252;48.122;11.538;2022-07-05T04:58:30;3.83;;;1.85;;
47519;SDS011;33252;48.122;11.538;2022-07-05T05:00:56;2.53;;;2.05;;
47519;SDS011;33252;48.122;11.538;2022-07-05T05:03:21;4.18;;;2.10;;
47519;SDS011;33252;48.122;11.538;2022-07-05T05:05:47;2.47;;;1.40;;
47519;SDS011;33252;48.122;11.538;2022-07-05T05:08:12;3.53;;;1.40;;
47519;SDS011;33252;48.122;11.538;2022-07-05T05:10:38;2.30;;;1.33;;
47519;SDS011;33252;48.122;11.538;2022-07-05T05:13:04;1.95;;;1.40;;
47519;SDS011;33252;48.122;11.538;2022-07-05T05:15:29;3.65;;;1.85;;
47519;SDS011;33252;48.122;11.538;2022-07-05T05:17:55;3.40;;;1.65;;
47519;SDS011;33252;48.122;11.538;2022-07-05T05:20:21;2.65;;;1.85;;
47519;SDS011;33252;48.122;11.538;2022-07-05T05:22:47;3.10;;;2.05;;
47519;SDS011;33252;48.122;11.538;2022-07-05T05:25:13;3.95;;;1.95;;
47519;SDS011;33252;48.122;11.538;2022-07-05T05:27:46;1.98;;;1.73;;
47519;SDS011;33252;48.122;11.538;2022-07-05T05:30:13;2.35;;;1.83;;
47519;SDS011;33252;48.122;11.538;2022-07-05T05:32:40;2.58;;;1.63;;
47519;SDS011;33252;48.122;11.538;2022-07-05T05:35:06;2.67;;;1.40;;
47519;SDS011;33252;48.122;11.538;2022-07-05T05:37:53;2.63;;;1.67;;
47519;SDS011;33252;48.122;11.538;2022-07-05T05:40:20;3.42;;;1.88;;
47519;SDS011;33252;48.122;11.538;2022-07-05T05:42:47;2.90;;;2.03;;
47519;SDS011;33252;48.122;11.538;2022-07-05T05:45:13;3.08;;;2.22;;
47519;SDS011;33252;48.122;11.538;2022-07-05T05:47:55;3.58;;;2.67;;
47519;SDS011;33252;48.122;11.538;2022-07-05T05:50:25;7.05;;;3.10;;
47519;SDS011;33252;48.122;11.538;2022-07-05T05:52:52;4.95;;;3.25;;
47519;SDS011;33252;48.122;11.538;2022-07-05T05:55:18;5.13;;;3.03;;
47519;SDS011;33252;48.122;11.538;2022-07-05T05:57:46;5.30;;;3.03;;
47519;SDS011;33252;48.122;11.538;2022-07-05T06:00:12;3.92;;;3.13;;
47519;SDS011;33252;48.122;11.538;2022-07-05T06:02:40;5.00;;;4.13;;
47519;SDS011;33252;48.122;11.538;2022-07-05T06:05:06;5.75;;;3.60;;
47519;SDS011;33252;48.122;11.538;2022-07-05T06:07:54;4.75;;;3.92;;
47519;SDS011;33252;48.122;11.538;2022-07-05T06:15:20;7.22;;;4.82;;
47519;SDS011;33252;48.122;11.538;2022-07-05T06:17:46;5.75;;;4.25;;
47519;SDS011;33252;48.122;11.538;2022-07-05T06:20:21;6.85;;;4.80;;
47519;SDS011;33252;48.122;11.538;2022-07-05T06:22:48;5.75;;;4.65;;
47519;SDS011;33252;48.122;11.538;2022-07-05T06:25:15;7.50;;;5.20;;
47519;SDS011;33252;48.122;11.538;2022-07-05T06:27:41;8.35;;;5.10;;
47519;SDS011;33252;48.122;11.538;2022-07-05T06:30:09;7.53;;;5.53;;
47519;SDS011;33252;48.122;11.538;2022-07-05T06:32:35;6.20;;;5.43;;
47519;SDS011;33252;48.122;11.538;2022-07-05T06:35:02;7.30;;;5.25;;
47519;SDS011;33252;48.122;11.538;2022-07-05T06:37:39;5.93;;;4.93;;
47519;SDS011;33252;48.122;11.538;2022-07-05T06:42:50;6.55;;;5.03;;
47519;SDS011;33252;48.122;11.538;2022-07-05T06:45:17;7.47;;;4.60;;
47519;SDS011;33252;48.122;11.538;2022-07-05T06:47:42;11.07;;;5.20;;
47519;SDS011;33252;48.122;11.538;2022-07-05T06:50:08;6.88;;;4.70;;
47519;SDS011;33252;48.122;11.538;2022-07-05T06:52:35;6.05;;;4.20;;
47519;SDS011;33252;48.122;11.538;2022-07-05T06:55:03;4.75;;;4.18;;
47519;SDS011;33252;48.122;11.538;2022-07-05T06:57:29;6.85;;;5.00;;
47519;SDS011;33252;48.122;11.538;2022-07-05T06:59:58;6.65;;;4.95;;
47519;SDS011;33252;48.122;11.538;2022-07-05T07:02:24;7.47;;;5.13;;
47519;SDS011;33252;48.122;11.538;2022-07-05T07:04:50;4.68;;;4.20;;
47519;SDS011;33252;48.122;11.538;2022-07-05T07:07:15;5.53;;;4.70;;
47519;SDS011;33252;48.122;11.538;2022-07-05T07:10:00;6.22;;;4.90;;
47519;SDS011;33252;48.122;11.538;2022-07-05T07:12:28;9.77;;;4.72;;
47519;SDS011;33252;48.122;11.538;2022-07-05T07:14:54;5.65;;;4.97;;
47519;SDS011;33252;48.122;11.538;2022-07-05T07:17:21;4.90;;;3.65;;
47519;SDS011;33252;48.122;11.538;2022-07-05T07:19:47;6.68;;;3.90;;
47519;SDS011;33252;48.122;11.538;2022-07-05T07:22:13;7.35;;;4.07;;
47519;SDS011;33252;48.122;11.538;2022-07-05T07:24:39;4.50;;;3.97;;
47519;SDS011;33252;48.122;11.538;2022-07-05T07:27:05;5.80;;;4.15;;
47519;SDS011;33252;48.122;11.538;2022-07-05T07:29:36;4.88;;;4.38;;
47519;SDS011;33252;48.122;11.538;2022-07-05T07:32:03;5.22;;;3.53;;
47519;SDS011;33252;48.122;11.538;2022-07-05T07:34:30;7.18;;;4.15;;
47519;SDS011;33252;48.122;11.538;2022-07-05T07:36:56;5.88;;;3.85;;
47519;SDS011;33252;48.122;11.538;2022-07-05T07:39:22;4.50;;;4.10;;
47519;SDS011;33252;48.122;11.538;2022-07-05T07:41:48;9.75;;;4.43;;
47519;SDS011;33252;48.122;11.538;2022-07-05T07:44:14;6.28;;;4.28;;
47519;SDS011;33252;48.122;11.538;2022-07-05T07:46:40;9.25;;;4.18;;
47519;SDS011;33252;48.122;11.538;2022-07-05T07:49:06;5.45;;;4.25;;
47519;SDS011;33252;48.122;11.538;2022-07-05T07:51:33;5.32;;;3.15;;
47519;SDS011;33252;48.122;11.538;2022-07-05T07:53:59;5.20;;;3.05;;
47519;SDS011;33252;48.122;11.538;2022-07-05T07:56:25;4.95;;;3.60;;
47519;SDS011;33252;48.122;11.538;2022-07-05T07:58:51;4.78;;;2.80;;
47519;SDS011;33252;48.122;11.538;2022-07-05T08:01:17;4.43;;;3.25;;
47519;SDS011;33252;48.122;11.538;2022-07-05T08:03:43;4.55;;;2.90;;
47519;SDS011;33252;48.122;11.538;2022-07-05T08:06:09;6.22;;;3.38;;
47519;SDS011;33252;48.122;11.538;2022-07-05T08:08:36;5.15;;;3.92;;
47519;SDS011;33252;48.122;11.538;2022-07-05T08:11:03;4.55;;;2.30;;
47519;SDS011;33252;48.122;11.538;2022-07-05T08:13:29;4.03;;;2.58;;
47519;SDS011;33252;48.122;11.538;2022-07-05T08:15:55;3.90;;;2.38;;
47519;SDS011;33252;48.122;11.538;2022-07-05T08:18:22;2.70;;;1.98;;
47519;SDS011;33252;48.122;11.538;2022-07-05T08:21:06;4.80;;;2.03;;
47519;SDS011;33252;48.122;11.538;2022-07-05T08:23:50;2.50;;;1.75;;
47519;SDS011;33252;48.122;11.538;2022-07-05T08:26:16;2.33;;;1.60;;
47519;SDS011;33252;48.122;11.538;2022-07-05T08:28:42;2.80;;;1.75;;
47519;SDS011;33252;48.122;11.538;2022-07-05T08:31:07;4.32;;;2.03;;
47519;SDS011;33252;48.122;11.538;2022-07-05T08:33:33;2.20;;;1.73;;
47519;SDS011;33252;48.122;11.538;2022-07-05T08:35:59;4.22;;;1.80;;
47519;SDS011;33252;48.122;11.538;2022-07-05T08:38:25;6.13;;;1.85;;
47519;SDS011;33252;48.122;11.538;2022-07-05T08:40:51;2.85;;;1.60;;
47519;SDS011;33252;48.122;11.538;2022-07-05T08:43:19;2.00;;;1.73;;
47519;SDS011;33252;48.122;11.538;2022-07-05T08:45:48;3.35;;;1.75;;
47519;SDS011;33252;48.122;11.538;2022-07-05T08:48:18;3.20;;;2.22;;
47519;SDS011;33252;48.122;11.538;2022-07-05T08:50:45;4.25;;;1.80;;
47519;SDS011;33252;48.122;11.538;2022-07-05T08:53:23;3.50;;;1.40;;
47519;SDS011;33252;48.122;11.538;2022-07-05T08:55:50;3.15;;;1.70;;
47519;SDS011;33252;48.122;11.538;2022-07-05T08:58:16;2.38;;;1.50;;
47519;SDS011;33252;48.122;11.538;2022-07-05T09:00:42;3.40;;;1.10;;
47519;SDS011;33252;48.122;11.538;2022-07-05T09:03:08;1.58;;;1.40;;
47519;SDS011;33252;48.122;11.538;2022-07-05T09:05:42;3.17;;;1.20;;
47519;SDS011;33252;48.122;11.538;2022-07-05T09:08:09;3.47;;;1.60;;
47519;SDS011;33252;48.122;11.538;2022-07-05T09:10:38;4.00;;;1.55;;
47519;SDS011;33252;48.122;11.538;2022-07-05T09:13:07;2.75;;;1.70;;
47519;SDS011;33252;48.122;11.538;2022-07-05T09:15:33;3.38;;;1.42;;
47519;SDS011;33252;48.122;11.538;2022-07-05T09:17:59;2.67;;;2.03;;
47519;SDS011;33252;48.122;11.538;2022-07-05T09:20:26;2.53;;;1.23;;
47519;SDS011;33252;48.122;11.538;2022-07-05T09:22:52;1.95;;;1.23;;
47519;SDS011;33252;48.122;11.538;2022-07-05T09:25:23;2.22;;;1.30;;
47519;SDS011;33252;48.122;11.538;2022-07-05T09:30:27;2.47;;;1.48;;
47519;SDS011;33252;48.122;11.538;2022-07-05T09:33:01;3.58;;;2.35;;
47519;SDS011;33252;48.122;11.538;2022-07-05T09:35:30;2.33;;;1.50;;
47519;SDS011;33252;48.122;11.538;2022-07-05T09:37:58;1.83;;;1.35;;
47519;SDS011;33252;48.122;11.538;2022-07-05T09:40:24;3.13;;;1.75;;
47519;SDS011;33252;48.122;11.538;2022-07-05T09:42:50;3.90;;;1.30;;
47519;SDS011;33252;48.122;11.538;2022-07-05T09:45:22;3.60;;;1.60;;
47519;SDS011;33252;48.122;11.538;2022-07-05T09:47:49;1.83;;;1.05;;
47519;SDS011;33252;48.122;11.538;2022-07-05T09:50:15;2.22;;;1.02;;
47519;SDS011;33252;48.122;11.538;2022-07-05T09:52:58;2.25;;;1.27;;
47519;SDS011;33252;48.122;11.538;2022-07-05T09:55:23;2.38;;;1.63;;
47519;SDS011;33252;48.122;11.538;2022-07-05T09:57:49;2.30;;;1.40;;
47519;SDS011;33252;48.122;11.538;2022-07-05T10:00:16;2.15;;;1.33;;
47519;SDS011;33252;48.122;11.538;2022-07-05T10:02:44;2.55;;;1.33;;
47519;SDS011;33252;48.122;11.538;2022-07-05T10:05:13;3.42;;;2.33;;
47519;SDS011;33252;48.122;11.538;2022-07-05T10:07:46;2.10;;;1.15;;
47519;SDS011;33252;48.122;11.538;2022-07-05T10:10:17;1.95;;;1.30;;
47519;SDS011;33252;48.122;11.538;2022-07-05T10:12:44;2.70;;;1.20;;
47519;SDS011;33252;48.122;11.538;2022-07-05T10:15:15;2.03;;;1.40;;
47519;SDS011;33252;48.122;11.538;2022-07-05T10:17:53;4.70;;;2.00;;
47519;SDS011;33252;48.122;11.538;2022-07-05T10:20:25;5.05;;;1.70;;
47519;SDS011;33252;48.122;11.538;2022-07-05T10:22:58;4.07;;;1.50;;
47519;SDS011;33252;48.122;11.538;2022-07-05T10:25:27;1.48;;;1.38;;
47519;SDS011;33252;48.122;11.538;2022-07-05T10:27:54;3.95;;;1.45;;
47519;SDS011;33252;48.122;11.538;2022-07-05T10:30:22;2.55;;;1.60;;
47519;SDS011;33252;48.122;11.538;2022-07-05T10:32:48;3.65;;;1.52;;
47519;SDS011;33252;48.122;11.538;2022-07-05T10:35:15;3.45;;;1.40;;
47519;SDS011;33252;48.122;11.538;2022-07-05T10:37:42;3.42;;;1.58;;
47519;SDS011;33252;48.122;11.538;2022-07-05T10:40:08;1.77;;;1.30;;
47519;SDS011;33252;48.122;11.538;2022-07-05T10:42:56;1.23;;;1.10;;
47519;SDS011;33252;48.122;11.538;2022-07-05T10:53:19;2.50;;;1.30;;
47519;SDS011;33252;48.122;11.538;2022-07-05T10:55:51;1.85;;;1.33;;
47519;SDS011;33252;48.122;11.538;2022-07-05T10:58:27;3.13;;;2.15;;
47519;SDS011;33252;48.122;11.538;2022-07-05T11:03:44;4.10;;;2.58;;
47519;SDS011;33252;48.122;11.538;2022-07-05T11:09:35;2.50;;;1.40;;
47519;SDS011;33252;48.122;11.538;2022-07-05T11:11:43;2.53;;;1.55;;
47519;SDS011;33252;48.122;11.538;2022-07-05T11:16:48;3.45;;;1.15;;
47519;SDS011;33252;48.122;11.538;2022-07-05T11:22:33;3.65;;;1.10;;
47519;SDS011;33252;48.122;11.538;2022-07-05T11:25:00;1.38;;;0.98;;
47519;SDS011;33252;48.122;11.538;2022-07-05T11:27:26;2.00;;;1.40;;
47519;SDS011;33252;48.122;11.538;2022-07-05T11:29:53;3.17;;;1.50;;
47519;SDS011;33252;48.122;11.538;2022-07-05T11:34:55;2.97;;;0.90;;
47519;SDS011;33252;48.122;11.538;2022-07-05T11:37:42;1.30;;;0.88;;
47519;SDS011;33252;48.122;11.538;2022-07-05T11:42:47;1.27;;;1.00;;
47519;SDS011;33252;48.122;11.538;2022-07-05T11:45:14;1.30;;;1.00;;
47519;SDS011;33252;48.122;11.538;2022-07-05T11:47:40;2.33;;;1.00;;
47519;SDS011;33252;48.122;11.538;2022-07-05T11:50:07;4.75;;;1.42;;
47519;SDS011;33252;48.122;11.538;2022-07-05T11:52:34;3.55;;;0.93;;
47519;SDS011;33252;48.122;11.538;2022-07-05T11:55:19;3.13;;;1.13;;
47519;SDS011;33252;48.122;11.538;2022-07-05T11:57:49;2.17;;;1.00;;
47519;SDS011;33252;48.122;11.538;2022-07-05T12:00:29;1.75;;;1.30;;
47519;SDS011;33252;48.122;11.538;2022-07-05T12:02:55;2.55;;;1.10;;
47519;SDS011;33252;48.122;11.538;2022-07-05T12:05:21;1.92;;;1.17;;
47519;SDS011;33252;48.122;11.538;2022-07-05T12:07:50;2.85;;;1.58;;
47519;SDS011;33252;48.122;11.538;2022-07-05T12:10:17;2.78;;;1.70;;
47519;SDS011;33252;48.122;11.538;2022-07-05T12:13:04;3.50;;;1.35;;
47519;SDS011;33252;48.122;11.538;2022-07-05T12:15:33;2.47;;;1.73;;
47519;SDS011;33252;48.122;11.538;2022-07-05T12:18:01;2.55;;;1.00;;
47519;SDS011;33252;48.122;11.538;2022-07-05T12:20:31;2.03;;;1.20;;
47519;SDS011;33252;48.122;11.538;2022-07-05T12:22:58;2.47;;;1.13;;
47519;SDS011;33252;48.122;11.538;2022-07-05T12:25:25;2.20;;;1.02;;
47519;SDS011;33252;48.122;11.538;2022-07-05T12:27:53;2.17;;;1.08;;
47519;SDS011;33252;48.122;11.538;2022-07-05T12:30:20;1.67;;;0.80;;
47519;SDS011;33252;48.122;11.538;2022-07-05T12:35:44;2.28;;;1.90;;
47519;SDS011;33252;48.122;11.538;2022-07-05T12:38:11;1.52;;;1.00;;
47519;SDS011;33252;48.122;11.538;2022-07-05T12:40:40;5.05;;;1.23;;
47519;SDS011;33252;48.122;11.538;2022-07-05T12:43:17;1.90;;;1.20;;
47519;SDS011;33252;48.122;11.538;2022-07-05T12:45:44;1.20;;;1.10;;
47519;SDS011;33252;48.122;11.538;2022-07-05T12:48:37;2.03;;;1.15;;
47519;SDS011;33252;48.122;11.538;2022-07-05T12:51:04;1.98;;;1.20;;
47519;SDS011;33252;48.122;11.538;2022-07-05T12:53:31;2.97;;;1.13;;
47519;SDS011;33252;48.122;11.538;2022-07-05T12:56:15;2.15;;;1.25;;
47519;SDS011;33252;48.122;11.538;2022-07-05T12:59:09;3.50;;;1.23;;
47519;SDS011;33252;48.122;11.538;2022-07-05T13:01:39;1.10;;;1.10;;
47519;SDS011;33252;48.122;11.538;2022-07-05T13:04:08;3.50;;;1.17;;
47519;SDS011;33252;48.122;11.538;2022-07-05T13:09:06;1.10;;;0.70;;
47519;SDS011;33252;48.122;11.538;2022-07-05T13:11:32;2.38;;;1.30;;
47519;SDS011;33252;48.122;11.538;2022-07-05T13:13:58;2.28;;;1.10;;
47519;SDS011;33252;48.122;11.538;2022-07-05T13:16:24;1.73;;;1.15;;
47519;SDS011;33252;48.122;11.538;2022-07-05T13:18:49;2.20;;;1.63;;
47519;SDS011;33252;48.122;11.538;2022-07-05T13:21:15;2.85;;;0.90;;
47519;SDS011;33252;48.122;11.538;2022-07-05T13:23:41;1.05;;;0.93;;
47519;SDS011;33252;48.122;11.538;2022-07-05T13:26:07;2.53;;;0.98;;
47519;SDS011;33252;48.122;11.538;2022-07-05T13:28:33;1.90;;;0.95;;
47519;SDS011;33252;48.122;11.538;2022-07-05T13:30:58;2.33;;;1.20;;
47519;SDS011;33252;48.122;11.538;2022-07-05T13:33:24;3.85;;;1.27;;
47519;SDS011;33252;48.122;11.538;2022-07-05T13:35:50;3.42;;;1.00;;
47519;SDS011;33252;48.122;11.538;2022-07-05T13:38:15;1.60;;;0.90;;
47519;SDS011;33252;48.122;11.538;2022-07-05T13:40:41;2.38;;;0.90;;
47519;SDS011;33252;48.122;11.538;2022-07-05T13:43:07;1.30;;;0.70;;
47519;SDS011;33252;48.122;11.538;2022-07-05T13:45:32;1.58;;;0.93;;
47519;SDS011;33252;48.122;11.538;2022-07-05T13:47:58;1.20;;;0.88;;
47519;SDS011;33252;48.122;11.538;2022-07-05T13:50:24;3.40;;;1.05;;
47519;SDS011;33252;48.122;11.538;2022-07-05T13:52:56;7.72;;;5.45;;
47519;SDS011;33252;48.122;11.538;2022-07-05T13:55:22;1.50;;;0.95;;
47519;SDS011;33252;48.122;11.538;2022-07-05T13:57:48;1.60;;;0.90;;
47519;SDS011;33252;48.122;11.538;2022-07-05T14:00:14;1.17;;;0.95;;
47519;SDS011;33252;48.122;11.538;2022-07-05T14:02:39;2.10;;;0.88;;
47519;SDS011;33252;48.122;11.538;2022-07-05T14:05:06;1.88;;;0.93;;
47519;SDS011;33252;48.122;11.538;2022-07-05T14:07:32;1.42;;;1.10;;
47519;SDS011;33252;48.122;11.538;2022-07-05T14:09:57;1.30;;;1.02;;
47519;SDS011;33252;48.122;11.538;2022-07-05T14:12:23;2.83;;;0.90;;
47519;SDS011;33252;48.122;11.538;2022-07-05T14:14:49;1.80;;;0.70;;
47519;SDS011;33252;48.122;11.538;2022-07-05T14:17:14;1.10;;;0.88;;
47519;SDS011;33252;48.122;11.538;2022-07-05T14:19:40;2.10;;;0.90;;
47519;SDS011;33252;48.122;11.538;2022-07-05T14:22:06;0.75;;;0.73;;
47519;SDS011;33252;48.122;11.538;2022-07-05T14:24:32;2.35;;;0.82;;
47519;SDS011;33252;48.122;11.538;2022-07-05T14:26:57;1.63;;;1.33;;
47519;SDS011;33252;48.122;11.538;2022-07-05T14:29:23;2.78;;;1.10;;
47519;SDS011;33252;48.122;11.538;2022-07-05T14:31:49;2.00;;;0.90;;
47519;SDS011;33252;48.122;11.538;2022-07-05T14:34:15;1.60;;;1.13;;
47519;SDS011;33252;48.122;11.538;2022-07-05T14:36:40;3.38;;;1.15;;
47519;SDS011;33252;48.122;11.538;2022-07-05T14:39:06;2.38;;;1.17;;
47519;SDS011;33252;48.122;11.538;2022-07-05T14:41:32;1.10;;;0.70;;
47519;SDS011;33252;48.122;11.538;2022-07-05T14:43:57;2.42;;;1.50;;
47519;SDS011;33252;48.122;11.538;2022-07-05T14:46:23;1.15;;;0.85;;
47519;SDS011;33252;48.122;11.538;2022-07-05T14:48:49;1.65;;;0.85;;
47519;SDS011;33252;48.122;11.538;2022-07-05T14:51:14;1.80;;;0.70;;
47519;SDS011;33252;48.122;11.538;2022-07-05T14:53:40;2.58;;;1.15;;
47519;SDS011;33252;48.122;11.538;2022-07-05T14:56:07;1.33;;;1.20;;
47519;SDS011;33252;48.122;11.538;2022-07-05T14:58:33;1.15;;;0.85;;
47519;SDS011;33252;48.122;11.538;2022-07-05T15:00:59;5.32;;;0.80;;
47519;SDS011;33252;48.122;11.538;2022-07-05T15:03:25;1.40;;;0.65;;
47519;SDS011;33252;48.122;11.538;2022-07-05T15:05:51;3.63;;;0.80;;
47519;SDS011;33252;48.122;11.538;2022-07-05T15:08:18;1.90;;;1.08;;
47519;SDS011;33252;48.122;11.538;2022-07-05T15:10:45;0.98;;;0.77;;
47519;SDS011;33252;48.122;11.538;2022-07-05T15:13:11;4.20;;;1.17;;
47519;SDS011;33252;48.122;11.538;2022-07-05T15:15:37;3.67;;;1.17;;